sensor_id;sensor_type;location;lat;lon;timestamp;temperature;humidity
9564;DHT22;4820;50.870;4.702;2023-03-11T00:01:08;3.10;99.90
9564;DHT22;4820;50.870;4.702;2023-03-11T00:03:35;3.00;99.90
9564;DHT22;4820;50.870;4.702;2023-03-11T00:06:01;2.90;99.90
9564;DHT22;4820;50.870;4.702;2023-03-11T00:08:27;2.90;99.90
9564;DHT22;4820;50.870;4.702;2023-03-11T00:10:55;2.80;99.90
9564;DHT22;4820;50.870;4.702;2023-03-11T00:13:23;2.70;99.90
9564;DHT22;4820;50.870;4.702;2023-03-11T00:15:52;2.70;99.90
9564;DHT22;4820;50.870;4.702;2023-03-11T00:18:22;2.70;99.90
9564;DHT22;4820;50.870;4.702;2023-03-11T00:20:52;2.70;99.90
9564;DHT22;4820;50.870;4.702;2023-03-11T00:23:19;2.70;99.90
9564;DHT22;4820;50.870;4.702;2023-03-11T00:25:45;2.70;99.90
9564;DHT22;4820;50.870;4.702;2023-03-11T00:28:12;2.70;99.90
9564;DHT22;4820;50.870;4.702;2023-03-11T00:30:39;2.70;99.90
9564;DHT22;4820;50.870;4.702;2023-03-11T00:33:07;2.60;99.90
9564;DHT22;4820;50.870;4.702;2023-03-11T00:35:33;2.60;99.90
9564;DHT22;4820;50.870;4.702;2023-03-11T00:38:03;2.60;99.90
9564;DHT22;4820;50.870;4.702;2023-03-11T00:40:32;2.60;99.90
9564;DHT22;4820;50.870;4.702;2023-03-11T00:42:58;2.70;99.90
9564;DHT22;4820;50.870;4.702;2023-03-11T00:45:25;2.70;99.90
9564;DHT22;4820;50.870;4.702;2023-03-11T00:47:51;2.70;99.90
9564;DHT22;4820;50.870;4.702;2023-03-11T00:50:25;2.60;99.90
9564;DHT22;4820;50.870;4.702;2023-03-11T00:52:52;2.60;99.90
9564;DHT22;4820;50.870;4.702;2023-03-11T00:55:21;2.60;99.90
9564;DHT22;4820;50.870;4.702;2023-03-11T00:57:51;2.70;99.90
9564;DHT22;4820;50.870;4.702;2023-03-11T01:00:18;2.80;99.90
9564;DHT22;4820;50.870;4.702;2023-03-11T01:02:44;2.70;99.90
9564;DHT22;4820;50.870;4.702;2023-03-11T01:05:11;2.70;99.90
9564;DHT22;4820;50.870;4.702;2023-03-11T01:07:36;2.70;99.90
9564;DHT22;4820;50.870;4.702;2023-03-11T01:10:05;2.70;99.90
9564;DHT22;4820;50.870;4.702;2023-03-11T01:12:31;2.60;99.90
9564;DHT22;4820;50.870;4.702;2023-03-11T01:14:57;2.60;99.90
9564;DHT22;4820;50.870;4.702;2023-03-11T01:17:22;2.50;99.90
9564;DHT22;4820;50.870;4.702;2023-03-11T01:19:48;2.50;99.90
9564;DHT22;4820;50.870;4.702;2023-03-11T01:22:14;2.40;99.90
9564;DHT22;4820;50.870;4.702;2023-03-11T01:24:40;2.40;99.90
9564;DHT22;4820;50.870;4.702;2023-03-11T01:27:06;2.40;99.90
9564;DHT22;4820;50.870;4.702;2023-03-11T01:29:32;2.40;99.90
9564;DHT22;4820;50.870;4.702;2023-03-11T01:31:57;2.40;99.90
9564;DHT22;4820;50.870;4.702;2023-03-11T01:34:23;2.30;99.90
9564;DHT22;4820;50.870;4.702;2023-03-11T01:36:49;2.30;99.90
9564;DHT22;4820;50.870;4.702;2023-03-11T01:39:15;2.30;99.90
9564;DHT22;4820;50.870;4.702;2023-03-11T01:41:41;2.30;99.90
9564;DHT22;4820;50.870;4.702;2023-03-11T01:44:06;2.20;99.90
9564;DHT22;4820;50.870;4.702;2023-03-11T01:47:17;2.20;99.90
9564;DHT22;4820;50.870;4.702;2023-03-11T01:49:25;2.10;99.90
9564;DHT22;4820;50.870;4.702;2023-03-11T01:52:00;2.20;99.90
9564;DHT22;4820;50.870;4.702;2023-03-11T01:54:30;2.20;99.90
9564;DHT22;4820;50.870;4.702;2023-03-11T01:56:58;2.20;99.90
9564;DHT22;4820;50.870;4.702;2023-03-11T01:59:29;2.30;99.90
9564;DHT22;4820;50.870;4.702;2023-03-11T02:02:04;2.30;99.90
9564;DHT22;4820;50.870;4.702;2023-03-11T02:04:33;2.30;99.90
9564;DHT22;4820;50.870;4.702;2023-03-11T02:07:00;2.40;99.90
9564;DHT22;4820;50.870;4.702;2023-03-11T02:09:26;2.40;99.90
9564;DHT22;4820;50.870;4.702;2023-03-11T02:11:52;2.50;99.90
9564;DHT22;4820;50.870;4.702;2023-03-11T02:14:18;2.50;99.90
9564;DHT22;4820;50.870;4.702;2023-03-11T02:16:44;2.50;99.90
9564;DHT22;4820;50.870;4.702;2023-03-11T02:19:23;2.60;99.90
9564;DHT22;4820;50.870;4.702;2023-03-11T02:21:51;2.60;99.90
9564;DHT22;4820;50.870;4.702;2023-03-11T02:27:05;2.60;99.90
9564;DHT22;4820;50.870;4.702;2023-03-11T02:29:32;2.60;99.90
9564;DHT22;4820;50.870;4.702;2023-03-11T02:32:00;2.60;99.90
9564;DHT22;4820;50.870;4.702;2023-03-11T02:34:30;2.70;99.90
9564;DHT22;4820;50.870;4.702;2023-03-11T02:36:57;2.70;99.90
9564;DHT22;4820;50.870;4.702;2023-03-11T02:42:10;2.70;99.90
9564;DHT22;4820;50.870;4.702;2023-03-11T02:44:41;2.80;99.90
9564;DHT22;4820;50.870;4.702;2023-03-11T02:47:09;2.80;99.90
9564;DHT22;4820;50.870;4.702;2023-03-11T02:49:35;2.80;99.90
9564;DHT22;4820;50.870;4.702;2023-03-11T02:52:02;2.80;99.90
9564;DHT22;4820;50.870;4.702;2023-03-11T02:54:28;2.80;99.90
9564;DHT22;4820;50.870;4.702;2023-03-11T02:56:53;2.80;99.90
9564;DHT22;4820;50.870;4.702;2023-03-11T02:59:19;2.80;99.90
9564;DHT22;4820;50.870;4.702;2023-03-11T03:01:45;2.80;99.90
9564;DHT22;4820;50.870;4.702;2023-03-11T03:04:11;2.70;99.90
9564;DHT22;4820;50.870;4.702;2023-03-11T03:06:36;2.70;99.90
9564;DHT22;4820;50.870;4.702;2023-03-11T03:09:03;2.70;99.90
9564;DHT22;4820;50.870;4.702;2023-03-11T03:11:28;2.70;99.90
9564;DHT22;4820;50.870;4.702;2023-03-11T03:13:54;2.70;99.90
9564;DHT22;4820;50.870;4.702;2023-03-11T03:16:20;2.70;99.90
9564;DHT22;4820;50.870;4.702;2023-03-11T03:18:46;2.70;99.90
9564;DHT22;4820;50.870;4.702;2023-03-11T03:21:12;2.70;99.90
9564;DHT22;4820;50.870;4.702;2023-03-11T03:23:38;2.70;99.90
9564;DHT22;4820;50.870;4.702;2023-03-11T03:26:04;2.70;99.90
9564;DHT22;4820;50.870;4.702;2023-03-11T03:28:30;2.70;99.90
9564;DHT22;4820;50.870;4.702;2023-03-11T03:31:08;2.60;99.90
9564;DHT22;4820;50.870;4.702;2023-03-11T03:33:35;2.60;99.90
9564;DHT22;4820;50.870;4.702;2023-03-11T03:36:05;2.50;99.90
9564;DHT22;4820;50.870;4.702;2023-03-11T03:38:31;2.50;99.90
9564;DHT22;4820;50.870;4.702;2023-03-11T03:40:57;2.50;99.90
9564;DHT22;4820;50.870;4.702;2023-03-11T03:43:22;2.60;99.90
9564;DHT22;4820;50.870;4.702;2023-03-11T03:46:03;2.60;99.90
9564;DHT22;4820;50.870;4.702;2023-03-11T03:48:29;2.60;99.90
9564;DHT22;4820;50.870;4.702;2023-03-11T03:50:55;2.60;99.90
9564;DHT22;4820;50.870;4.702;2023-03-11T03:53:21;2.50;99.90
9564;DHT22;4820;50.870;4.702;2023-03-11T03:55:47;2.50;99.90
9564;DHT22;4820;50.870;4.702;2023-03-11T03:58:15;2.50;99.90
9564;DHT22;4820;50.870;4.702;2023-03-11T04:00:41;2.50;99.90
9564;DHT22;4820;50.870;4.702;2023-03-11T04:03:06;2.60;99.90
9564;DHT22;4820;50.870;4.702;2023-03-11T04:05:32;2.60;99.90
9564;DHT22;4820;50.870;4.702;2023-03-11T04:07:58;2.60;99.90
9564;DHT22;4820;50.870;4.702;2023-03-11T04:10:24;2.60;99.90
9564;DHT22;4820;50.870;4.702;2023-03-11T04:12:50;2.60;99.90
9564;DHT22;4820;50.870;4.702;2023-03-11T04:15:16;2.60;99.90
9564;DHT22;4820;50.870;4.702;2023-03-11T04:17:41;2.50;99.90
9564;DHT22;4820;50.870;4.702;2023-03-11T04:20:09;2.40;99.90
9564;DHT22;4820;50.870;4.702;2023-03-11T04:22:35;2.30;99.90
9564;DHT22;4820;50.870;4.702;2023-03-11T04:25:01;2.30;99.90
9564;DHT22;4820;50.870;4.702;2023-03-11T04:27:27;2.20;99.90
9564;DHT22;4820;50.870;4.702;2023-03-11T04:29:53;2.20;99.90
9564;DHT22;4820;50.870;4.702;2023-03-11T04:32:18;2.10;99.90
9564;DHT22;4820;50.870;4.702;2023-03-11T04:34:44;2.10;99.90
9564;DHT22;4820;50.870;4.702;2023-03-11T04:37:10;2.10;99.90
9564;DHT22;4820;50.870;4.702;2023-03-11T04:39:35;2.10;99.90
9564;DHT22;4820;50.870;4.702;2023-03-11T04:42:01;2.00;99.90
9564;DHT22;4820;50.870;4.702;2023-03-11T04:44:27;2.00;99.90
9564;DHT22;4820;50.870;4.702;2023-03-11T04:46:52;1.90;99.90
9564;DHT22;4820;50.870;4.702;2023-03-11T04:49:18;1.90;99.90
9564;DHT22;4820;50.870;4.702;2023-03-11T04:51:44;1.90;99.90
9564;DHT22;4820;50.870;4.702;2023-03-11T04:54:09;1.90;99.90
9564;DHT22;4820;50.870;4.702;2023-03-11T04:56:35;1.80;99.90
9564;DHT22;4820;50.870;4.702;2023-03-11T04:59:01;1.80;99.90
9564;DHT22;4820;50.870;4.702;2023-03-11T05:01:27;1.80;99.90
9564;DHT22;4820;50.870;4.702;2023-03-11T05:03:52;1.80;99.90
9564;DHT22;4820;50.870;4.702;2023-03-11T05:06:19;1.80;99.90
9564;DHT22;4820;50.870;4.702;2023-03-11T05:08:45;1.80;99.90
9564;DHT22;4820;50.870;4.702;2023-03-11T05:11:10;1.80;99.90
9564;DHT22;4820;50.870;4.702;2023-03-11T05:13:36;1.80;99.90
9564;DHT22;4820;50.870;4.702;2023-03-11T05:16:03;1.80;99.90
9564;DHT22;4820;50.870;4.702;2023-03-11T05:18:29;1.80;99.90
9564;DHT22;4820;50.870;4.702;2023-03-11T05:20:57;1.80;99.90
9564;DHT22;4820;50.870;4.702;2023-03-11T05:23:22;1.80;99.90
9564;DHT22;4820;50.870;4.702;2023-03-11T05:25:48;1.80;99.90
9564;DHT22;4820;50.870;4.702;2023-03-11T05:28:14;1.80;99.90
9564;DHT22;4820;50.870;4.702;2023-03-11T05:30:39;1.80;99.90
9564;DHT22;4820;50.870;4.702;2023-03-11T05:33:06;1.80;99.90
9564;DHT22;4820;50.870;4.702;2023-03-11T05:35:32;1.80;99.90
9564;DHT22;4820;50.870;4.702;2023-03-11T05:37:57;1.80;99.90
9564;DHT22;4820;50.870;4.702;2023-03-11T05:40:23;1.80;99.90
9564;DHT22;4820;50.870;4.702;2023-03-11T05:42:49;1.80;99.90
9564;DHT22;4820;50.870;4.702;2023-03-11T05:45:14;1.80;99.90
9564;DHT22;4820;50.870;4.702;2023-03-11T05:47:40;1.80;99.90
9564;DHT22;4820;50.870;4.702;2023-03-11T05:50:08;1.70;99.90
9564;DHT22;4820;50.870;4.702;2023-03-11T05:52:33;1.70;99.90
9564;DHT22;4820;50.870;4.702;2023-03-11T05:54:59;1.70;99.90
9564;DHT22;4820;50.870;4.702;2023-03-11T05:57:25;1.80;99.90
9564;DHT22;4820;50.870;4.702;2023-03-11T05:59:51;1.70;99.90
9564;DHT22;4820;50.870;4.702;2023-03-11T06:02:16;1.60;99.90
9564;DHT22;4820;50.870;4.702;2023-03-11T06:04:42;1.60;99.90
9564;DHT22;4820;50.870;4.702;2023-03-11T06:07:08;1.70;99.90
9564;DHT22;4820;50.870;4.702;2023-03-11T06:09:34;1.60;99.90
9564;DHT22;4820;50.870;4.702;2023-03-11T06:12:04;1.60;99.90
9564;DHT22;4820;50.870;4.702;2023-03-11T06:14:30;1.60;99.90
9564;DHT22;4820;50.870;4.702;2023-03-11T06:16:58;1.60;99.90
9564;DHT22;4820;50.870;4.702;2023-03-11T06:19:27;1.60;99.90
9564;DHT22;4820;50.870;4.702;2023-03-11T06:21:53;1.60;99.90
9564;DHT22;4820;50.870;4.702;2023-03-11T06:24:19;1.60;99.90
9564;DHT22;4820;50.870;4.702;2023-03-11T06:26:49;1.60;99.90
9564;DHT22;4820;50.870;4.702;2023-03-11T06:29:15;1.50;99.90
9564;DHT22;4820;50.870;4.702;2023-03-11T06:31:40;1.50;99.90
9564;DHT22;4820;50.870;4.702;2023-03-11T06:34:07;1.50;99.90
9564;DHT22;4820;50.870;4.702;2023-03-11T06:36:33;1.50;99.90
9564;DHT22;4820;50.870;4.702;2023-03-11T06:38:58;1.50;99.90
9564;DHT22;4820;50.870;4.702;2023-03-11T06:41:24;1.50;99.90
9564;DHT22;4820;50.870;4.702;2023-03-11T06:43:50;1.50;99.90
9564;DHT22;4820;50.870;4.702;2023-03-11T06:46:20;1.50;99.90
9564;DHT22;4820;50.870;4.702;2023-03-11T06:48:47;1.50;99.90
9564;DHT22;4820;50.870;4.702;2023-03-11T06:51:16;1.50;99.90
9564;DHT22;4820;50.870;4.702;2023-03-11T06:53:46;1.40;99.90
9564;DHT22;4820;50.870;4.702;2023-03-11T06:56:12;1.40;99.90
9564;DHT22;4820;50.870;4.702;2023-03-11T06:58:40;1.50;99.90
9564;DHT22;4820;50.870;4.702;2023-03-11T07:01:07;1.50;99.90
9564;DHT22;4820;50.870;4.702;2023-03-11T07:03:33;1.40;99.90
9564;DHT22;4820;50.870;4.702;2023-03-11T07:06:02;1.40;99.90
9564;DHT22;4820;50.870;4.702;2023-03-11T07:08:28;1.30;99.90
9564;DHT22;4820;50.870;4.702;2023-03-11T07:13:31;1.30;99.90
9564;DHT22;4820;50.870;4.702;2023-03-11T07:16:06;1.30;99.90
9564;DHT22;4820;50.870;4.702;2023-03-11T07:18:33;1.40;99.90
9564;DHT22;4820;50.870;4.702;2023-03-11T07:21:01;1.40;99.90
9564;DHT22;4820;50.870;4.702;2023-03-11T07:23:26;1.50;99.90
9564;DHT22;4820;50.870;4.702;2023-03-11T07:25:52;1.60;99.90
9564;DHT22;4820;50.870;4.702;2023-03-11T07:28:22;1.60;99.90
9564;DHT22;4820;50.870;4.702;2023-03-11T07:30:48;1.60;99.90
9564;DHT22;4820;50.870;4.702;2023-03-11T07:33:15;1.60;99.90
9564;DHT22;4820;50.870;4.702;2023-03-11T07:35:41;1.70;99.90
9564;DHT22;4820;50.870;4.702;2023-03-11T07:38:07;1.80;99.90
9564;DHT22;4820;50.870;4.702;2023-03-11T07:40:33;2.00;99.90
9564;DHT22;4820;50.870;4.702;2023-03-11T07:42:58;2.10;99.90
9564;DHT22;4820;50.870;4.702;2023-03-11T07:45:25;2.10;99.90
9564;DHT22;4820;50.870;4.702;2023-03-11T07:47:51;2.20;99.90
9564;DHT22;4820;50.870;4.702;2023-03-11T07:50:18;2.20;99.90
9564;DHT22;4820;50.870;4.702;2023-03-11T07:52:47;2.30;99.90
9564;DHT22;4820;50.870;4.702;2023-03-11T07:55:13;2.50;99.90
9564;DHT22;4820;50.870;4.702;2023-03-11T07:57:40;2.50;99.90
9564;DHT22;4820;50.870;4.702;2023-03-11T08:00:08;2.60;99.90
9564;DHT22;4820;50.870;4.702;2023-03-11T08:02:34;2.70;99.90
9564;DHT22;4820;50.870;4.702;2023-03-11T08:04:59;2.80;99.90
9564;DHT22;4820;50.870;4.702;2023-03-11T08:07:25;2.80;99.90
9564;DHT22;4820;50.870;4.702;2023-03-11T08:09:51;3.00;99.90
9564;DHT22;4820;50.870;4.702;2023-03-11T08:12:16;3.00;99.90
9564;DHT22;4820;50.870;4.702;2023-03-11T08:14:42;3.00;99.90
9564;DHT22;4820;50.870;4.702;2023-03-11T08:17:08;3.10;99.90
9564;DHT22;4820;50.870;4.702;2023-03-11T08:19:35;3.20;99.90
9564;DHT22;4820;50.870;4.702;2023-03-11T08:22:04;3.30;99.90
9564;DHT22;4820;50.870;4.702;2023-03-11T08:24:29;3.30;99.90
9564;DHT22;4820;50.870;4.702;2023-03-11T08:26:55;3.40;99.90
9564;DHT22;4820;50.870;4.702;2023-03-11T08:29:22;3.50;99.90
9564;DHT22;4820;50.870;4.702;2023-03-11T08:31:48;3.60;99.90
9564;DHT22;4820;50.870;4.702;2023-03-11T08:34:14;3.70;99.90
9564;DHT22;4820;50.870;4.702;2023-03-11T08:36:40;3.80;99.90
9564;DHT22;4820;50.870;4.702;2023-03-11T08:39:06;3.90;99.90
9564;DHT22;4820;50.870;4.702;2023-03-11T08:41:33;3.80;99.90
9564;DHT22;4820;50.870;4.702;2023-03-11T08:43:58;3.80;99.90
9564;DHT22;4820;50.870;4.702;2023-03-11T08:46:32;3.90;99.90
9564;DHT22;4820;50.870;4.702;2023-03-11T08:48:58;4.00;99.90
9564;DHT22;4820;50.870;4.702;2023-03-11T08:51:25;4.10;99.90
9564;DHT22;4820;50.870;4.702;2023-03-11T08:53:51;4.20;99.90
9564;DHT22;4820;50.870;4.702;2023-03-11T08:56:17;4.30;99.90
9564;DHT22;4820;50.870;4.702;2023-03-11T08:58:43;4.40;99.90
9564;DHT22;4820;50.870;4.702;2023-03-11T09:01:09;4.50;99.90
9564;DHT22;4820;50.870;4.702;2023-03-11T09:03:36;4.60;99.90
9564;DHT22;4820;50.870;4.702;2023-03-11T09:06:09;4.60;99.90
9564;DHT22;4820;50.870;4.702;2023-03-11T09:08:35;4.70;99.90
9564;DHT22;4820;50.870;4.702;2023-03-11T09:11:01;4.80;99.90
9564;DHT22;4820;50.870;4.702;2023-03-11T09:13:27;4.90;99.90
9564;DHT22;4820;50.870;4.702;2023-03-11T09:15:53;5.00;99.90
9564;DHT22;4820;50.870;4.702;2023-03-11T09:18:20;5.10;99.90
9564;DHT22;4820;50.870;4.702;2023-03-11T09:20:46;5.20;99.90
9564;DHT22;4820;50.870;4.702;2023-03-11T09:23:14;5.20;99.90
9564;DHT22;4820;50.870;4.702;2023-03-11T09:25:41;5.20;99.90
9564;DHT22;4820;50.870;4.702;2023-03-11T09:28:06;5.20;99.90
9564;DHT22;4820;50.870;4.702;2023-03-11T09:30:33;5.20;99.90
9564;DHT22;4820;50.870;4.702;2023-03-11T09:33:00;5.40;99.90
9564;DHT22;4820;50.870;4.702;2023-03-11T09:35:25;5.40;99.90
9564;DHT22;4820;50.870;4.702;2023-03-11T09:37:51;5.50;99.90
9564;DHT22;4820;50.870;4.702;2023-03-11T09:40:20;5.50;99.90
9564;DHT22;4820;50.870;4.702;2023-03-11T09:43:05;5.40;99.90
9564;DHT22;4820;50.870;4.702;2023-03-11T09:45:39;5.30;99.90
9564;DHT22;4820;50.870;4.702;2023-03-11T09:56:11;5.40;99.90
9564;DHT22;4820;50.870;4.702;2023-03-11T10:01:17;5.80;99.90
9564;DHT22;4820;50.870;4.702;2023-03-11T10:03:47;6.00;99.90
9564;DHT22;4820;50.870;4.702;2023-03-11T10:06:21;6.10;99.90
9564;DHT22;4820;50.870;4.702;2023-03-11T10:20:35;6.80;99.90
9564;DHT22;4820;50.870;4.702;2023-03-11T10:25:20;6.80;99.90
9564;DHT22;4820;50.870;4.702;2023-03-11T10:27:54;6.70;99.90
9564;DHT22;4820;50.870;4.702;2023-03-11T10:30:30;6.80;99.90
9564;DHT22;4820;50.870;4.702;2023-03-11T10:35:45;7.10;99.90
9564;DHT22;4820;50.870;4.702;2023-03-11T10:38:27;7.30;99.90
9564;DHT22;4820;50.870;4.702;2023-03-11T10:40:57;7.40;99.90
9564;DHT22;4820;50.870;4.702;2023-03-11T10:43:39;7.80;99.90
9564;DHT22;4820;50.870;4.702;2023-03-11T10:46:22;8.00;99.90
9564;DHT22;4820;50.870;4.702;2023-03-11T10:48:48;8.30;99.80
9564;DHT22;4820;50.870;4.702;2023-03-11T10:51:21;8.40;99.90
9564;DHT22;4820;50.870;4.702;2023-03-11T10:53:59;8.30;98.90
9564;DHT22;4820;50.870;4.702;2023-03-11T10:58:50;8.20;98.50
9564;DHT22;4820;50.870;4.702;2023-03-11T11:01:17;8.00;99.10
9564;DHT22;4820;50.870;4.702;2023-03-11T11:03:45;7.90;98.60
9564;DHT22;4820;50.870;4.702;2023-03-11T11:06:33;7.80;98.80
9564;DHT22;4820;50.870;4.702;2023-03-11T11:09:20;7.80;98.60
9564;DHT22;4820;50.870;4.702;2023-03-11T11:12:13;7.70;99.00
9564;DHT22;4820;50.870;4.702;2023-03-11T11:17:34;7.90;98.60
9564;DHT22;4820;50.870;4.702;2023-03-11T11:20:02;7.90;97.90
9564;DHT22;4820;50.870;4.702;2023-03-11T11:22:38;7.90;98.50
9564;DHT22;4820;50.870;4.702;2023-03-11T11:25:30;7.70;97.80
9564;DHT22;4820;50.870;4.702;2023-03-11T11:28:23;7.80;98.80
9564;DHT22;4820;50.870;4.702;2023-03-11T11:31:00;7.80;98.00
9564;DHT22;4820;50.870;4.702;2023-03-11T11:33:30;7.70;99.10
9564;DHT22;4820;50.870;4.702;2023-03-11T11:35:59;7.80;99.70
9564;DHT22;4820;50.870;4.702;2023-03-11T11:38:27;7.90;99.90
9564;DHT22;4820;50.870;4.702;2023-03-11T11:40:55;8.10;98.50
9564;DHT22;4820;50.870;4.702;2023-03-11T11:43:43;8.10;98.50
9564;DHT22;4820;50.870;4.702;2023-03-11T11:46:39;8.00;97.90
9564;DHT22;4820;50.870;4.702;2023-03-11T11:51:44;7.90;99.20
9564;DHT22;4820;50.870;4.702;2023-03-11T11:56:48;8.20;97.80
9564;DHT22;4820;50.870;4.702;2023-03-11T11:59:20;8.20;97.80
9564;DHT22;4820;50.870;4.702;2023-03-11T12:01:49;8.30;98.20
9564;DHT22;4820;50.870;4.702;2023-03-11T12:10:35;8.00;98.10
9564;DHT22;4820;50.870;4.702;2023-03-11T12:16:00;7.80;99.90
9564;DHT22;4820;50.870;4.702;2023-03-11T12:24:25;7.90;99.90
9564;DHT22;4820;50.870;4.702;2023-03-11T12:27:01;7.70;99.70
9564;DHT22;4820;50.870;4.702;2023-03-11T12:29:47;7.50;99.90
9564;DHT22;4820;50.870;4.702;2023-03-11T12:34:54;7.50;99.90
9564;DHT22;4820;50.870;4.702;2023-03-11T12:37:21;7.50;99.90
9564;DHT22;4820;50.870;4.702;2023-03-11T12:39:47;7.60;99.90
9564;DHT22;4820;50.870;4.702;2023-03-11T12:42:14;7.60;99.90
9564;DHT22;4820;50.870;4.702;2023-03-11T12:44:40;7.80;99.90
9564;DHT22;4820;50.870;4.702;2023-03-11T12:49:36;8.10;99.90
9564;DHT22;4820;50.870;4.702;2023-03-11T12:52:17;8.20;99.50
9564;DHT22;4820;50.870;4.702;2023-03-11T12:57:50;8.10;99.80
9564;DHT22;4820;50.870;4.702;2023-03-11T13:08:13;7.90;98.20
9564;DHT22;4820;50.870;4.702;2023-03-11T13:10:42;8.00;97.60
9564;DHT22;4820;50.870;4.702;2023-03-11T13:13:41;8.10;98.30
9564;DHT22;4820;50.870;4.702;2023-03-11T13:18:42;8.30;97.40
9564;DHT22;4820;50.870;4.702;2023-03-11T13:40:59;8.40;91.60
9564;DHT22;4820;50.870;4.702;2023-03-11T13:43:26;8.40;92.00
9564;DHT22;4820;50.870;4.702;2023-03-11T13:48:23;8.40;91.90
9564;DHT22;4820;50.870;4.702;2023-03-11T13:51:01;8.40;93.70
9564;DHT22;4820;50.870;4.702;2023-03-11T13:53:37;8.60;94.20
9564;DHT22;4820;50.870;4.702;2023-03-11T13:56:04;8.70;93.40
9564;DHT22;4820;50.870;4.702;2023-03-11T13:58:30;8.70;92.60
9564;DHT22;4820;50.870;4.702;2023-03-11T14:01:00;8.80;92.40
9564;DHT22;4820;50.870;4.702;2023-03-11T14:03:31;8.80;92.30
9564;DHT22;4820;50.870;4.702;2023-03-11T14:06:02;8.80;91.00
9564;DHT22;4820;50.870;4.702;2023-03-11T14:08:33;8.80;91.10
9564;DHT22;4820;50.870;4.702;2023-03-11T14:13:28;8.80;92.10
9564;DHT22;4820;50.870;4.702;2023-03-11T14:16:07;8.80;92.90
9564;DHT22;4820;50.870;4.702;2023-03-11T14:21:19;8.90;92.30
9564;DHT22;4820;50.870;4.702;2023-03-11T14:23:47;8.80;92.40
9564;DHT22;4820;50.870;4.702;2023-03-11T14:26:20;8.90;93.00
9564;DHT22;4820;50.870;4.702;2023-03-11T14:28:56;8.90;93.00
9564;DHT22;4820;50.870;4.702;2023-03-11T14:36:42;9.00;93.00
9564;DHT22;4820;50.870;4.702;2023-03-11T14:44:47;9.00;92.20
9564;DHT22;4820;50.870;4.702;2023-03-11T14:49:48;9.20;93.20
9564;DHT22;4820;50.870;4.702;2023-03-11T14:52:31;9.30;93.80
9564;DHT22;4820;50.870;4.702;2023-03-11T14:54:58;9.40;93.50
9564;DHT22;4820;50.870;4.702;2023-03-11T14:57:47;9.50;93.00
9564;DHT22;4820;50.870;4.702;2023-03-11T15:00:21;9.50;91.70
9564;DHT22;4820;50.870;4.702;2023-03-11T15:05:48;9.50;91.60
9564;DHT22;4820;50.870;4.702;2023-03-11T15:08:20;9.60;92.10
9564;DHT22;4820;50.870;4.702;2023-03-11T15:11:07;9.70;92.10
9564;DHT22;4820;50.870;4.702;2023-03-11T15:13:34;9.70;91.60
9564;DHT22;4820;50.870;4.702;2023-03-11T15:16:02;9.60;91.60
9564;DHT22;4820;50.870;4.702;2023-03-11T15:18:33;9.60;92.40
9564;DHT22;4820;50.870;4.702;2023-03-11T15:21:17;9.50;92.80
9564;DHT22;4820;50.870;4.702;2023-03-11T15:26:20;9.40;93.50
9564;DHT22;4820;50.870;4.702;2023-03-11T15:29:14;9.30;93.20
9564;DHT22;4820;50.870;4.702;2023-03-11T15:31:41;9.30;93.50
9564;DHT22;4820;50.870;4.702;2023-03-11T15:37:17;9.20;94.10
9564;DHT22;4820;50.870;4.702;2023-03-11T15:39:45;9.20;94.10
9564;DHT22;4820;50.870;4.702;2023-03-11T15:42:14;9.40;94.10
9564;DHT22;4820;50.870;4.702;2023-03-11T15:44:48;9.40;93.70
9564;DHT22;4820;50.870;4.702;2023-03-11T15:47:21;9.40;94.00
9564;DHT22;4820;50.870;4.702;2023-03-11T15:49:47;9.40;94.00
9564;DHT22;4820;50.870;4.702;2023-03-11T15:52:14;9.30;94.20
9564;DHT22;4820;50.870;4.702;2023-03-11T15:54:40;9.40;94.00
9564;DHT22;4820;50.870;4.702;2023-03-11T15:57:19;9.40;94.00
9564;DHT22;4820;50.870;4.702;2023-03-11T15:59:46;9.50;94.00
9564;DHT22;4820;50.870;4.702;2023-03-11T16:02:25;9.50;93.60
9564;DHT22;4820;50.870;4.702;2023-03-11T16:04:53;9.50;93.80
9564;DHT22;4820;50.870;4.702;2023-03-11T16:07:20;9.50;94.10
9564;DHT22;4820;50.870;4.702;2023-03-11T16:09:46;9.40;94.10
9564;DHT22;4820;50.870;4.702;2023-03-11T16:12:22;9.30;94.20
9564;DHT22;4820;50.870;4.702;2023-03-11T16:14:49;9.30;94.60
9564;DHT22;4820;50.870;4.702;2023-03-11T16:17:15;9.20;94.10
9564;DHT22;4820;50.870;4.702;2023-03-11T16:19:41;9.10;94.40
9564;DHT22;4820;50.870;4.702;2023-03-11T16:22:30;9.20;93.80
9564;DHT22;4820;50.870;4.702;2023-03-11T16:24:57;9.20;93.90
9564;DHT22;4820;50.870;4.702;2023-03-11T16:27:23;9.20;93.90
9564;DHT22;4820;50.870;4.702;2023-03-11T16:29:50;9.10;93.80
9564;DHT22;4820;50.870;4.702;2023-03-11T16:32:15;9.10;93.50
9564;DHT22;4820;50.870;4.702;2023-03-11T16:34:41;9.10;93.90
9564;DHT22;4820;50.870;4.702;2023-03-11T16:37:13;9.00;94.20
9564;DHT22;4820;50.870;4.702;2023-03-11T16:39:40;8.90;94.00
9564;DHT22;4820;50.870;4.702;2023-03-11T16:42:07;8.90;93.90
9564;DHT22;4820;50.870;4.702;2023-03-11T16:44:33;8.80;94.20
9564;DHT22;4820;50.870;4.702;2023-03-11T16:46:59;8.80;94.10
9564;DHT22;4820;50.870;4.702;2023-03-11T16:49:25;8.70;94.10
9564;DHT22;4820;50.870;4.702;2023-03-11T16:51:50;8.70;94.30
9564;DHT22;4820;50.870;4.702;2023-03-11T16:54:16;8.60;94.50
9564;DHT22;4820;50.870;4.702;2023-03-11T16:56:42;8.50;94.20
9564;DHT22;4820;50.870;4.702;2023-03-11T16:59:07;8.50;94.60
9564;DHT22;4820;50.870;4.702;2023-03-11T17:01:33;8.40;95.10
9564;DHT22;4820;50.870;4.702;2023-03-11T17:04:06;8.20;96.60
9564;DHT22;4820;50.870;4.702;2023-03-11T17:06:32;8.20;97.30
9564;DHT22;4820;50.870;4.702;2023-03-11T17:08:58;8.10;98.20
9564;DHT22;4820;50.870;4.702;2023-03-11T17:11:23;8.00;98.20
9564;DHT22;4820;50.870;4.702;2023-03-11T17:13:53;7.90;98.50
9564;DHT22;4820;50.870;4.702;2023-03-11T17:16:19;7.80;99.10
9564;DHT22;4820;50.870;4.702;2023-03-11T17:18:44;7.60;99.90
9564;DHT22;4820;50.870;4.702;2023-03-11T17:21:13;7.60;99.90
9564;DHT22;4820;50.870;4.702;2023-03-11T17:23:40;7.50;99.90
9564;DHT22;4820;50.870;4.702;2023-03-11T17:26:08;7.50;99.90
9564;DHT22;4820;50.870;4.702;2023-03-11T17:28:35;7.40;99.90
9564;DHT22;4820;50.870;4.702;2023-03-11T17:31:01;7.40;99.90
9564;DHT22;4820;50.870;4.702;2023-03-11T17:33:27;7.40;99.90
9564;DHT22;4820;50.870;4.702;2023-03-11T17:36:01;7.30;99.90
9564;DHT22;4820;50.870;4.702;2023-03-11T17:38:27;7.30;99.90
9564;DHT22;4820;50.870;4.702;2023-03-11T17:40:54;7.30;99.90
9564;DHT22;4820;50.870;4.702;2023-03-11T17:43:21;7.20;99.90
9564;DHT22;4820;50.870;4.702;2023-03-11T17:45:48;7.20;99.90
9564;DHT22;4820;50.870;4.702;2023-03-11T17:48:14;7.20;99.90
9564;DHT22;4820;50.870;4.702;2023-03-11T17:50:39;7.30;99.90
9564;DHT22;4820;50.870;4.702;2023-03-11T17:53:05;7.30;99.90
9564;DHT22;4820;50.870;4.702;2023-03-11T17:55:32;7.30;99.90
9564;DHT22;4820;50.870;4.702;2023-03-11T17:57:59;7.30;99.90
9564;DHT22;4820;50.870;4.702;2023-03-11T18:00:25;7.30;99.90
9564;DHT22;4820;50.870;4.702;2023-03-11T18:02:52;7.30;99.90
9564;DHT22;4820;50.870;4.702;2023-03-11T18:05:18;7.30;99.90
9564;DHT22;4820;50.870;4.702;2023-03-11T18:07:45;7.20;99.90
9564;DHT22;4820;50.870;4.702;2023-03-11T18:10:12;7.30;99.90
9564;DHT22;4820;50.870;4.702;2023-03-11T18:12:40;7.20;99.90
9564;DHT22;4820;50.870;4.702;2023-03-11T18:15:07;7.20;99.90
9564;DHT22;4820;50.870;4.702;2023-03-11T18:17:39;7.10;99.90
9564;DHT22;4820;50.870;4.702;2023-03-11T18:20:05;7.00;99.90
9564;DHT22;4820;50.870;4.702;2023-03-11T18:22:31;7.00;99.90
9564;DHT22;4820;50.870;4.702;2023-03-11T18:24:57;6.90;99.90
9564;DHT22;4820;50.870;4.702;2023-03-11T18:27:23;6.80;99.90
9564;DHT22;4820;50.870;4.702;2023-03-11T18:29:49;6.80;99.90
9564;DHT22;4820;50.870;4.702;2023-03-11T18:32:15;6.80;99.90
9564;DHT22;4820;50.870;4.702;2023-03-11T18:34:41;6.70;99.90